createdAt,value
2023-01-09T00:00:13.488Z,7.20
2023-01-09T00:02:15.354Z,7.30
2023-01-09T00:04:18.283Z,8.20
2023-01-09T00:06:20.080Z,7.77
2023-01-09T00:08:22.058Z,7.80
2023-01-09T00:10:24.190Z,8.63
2023-01-09T00:12:26.242Z,6.97
2023-01-09T00:14:28.115Z,9.80
2023-01-09T00:16:30.136Z,10.77
2023-01-09T00:18:31.931Z,10.93
2023-01-09T00:20:33.830Z,9.17
2023-01-09T00:22:37.399Z,9.93
2023-01-09T00:24:39.522Z,7.73
2023-01-09T00:26:41.283Z,7.97
2023-01-09T00:28:48.851Z,9.83
2023-01-09T00:30:59.408Z,8.83
2023-01-09T00:33:01.340Z,8.20
2023-01-09T00:35:03.394Z,8.30
2023-01-09T00:37:11.820Z,7.00
2023-01-09T00:39:13.737Z,8.83
2023-01-09T00:41:20.111Z,7.67
2023-01-09T00:43:27.376Z,7.37
2023-01-09T00:45:30.379Z,6.23
2023-01-09T00:47:46.581Z,4.67
2023-01-09T00:49:50.122Z,4.28
2023-01-09T00:51:54.101Z,5.30
2023-01-09T00:53:56.141Z,6.23
2023-01-09T00:56:01.609Z,5.17
2023-01-09T00:58:03.920Z,5.23
2023-01-09T01:00:07.583Z,7.20
2023-01-09T01:02:09.760Z,6.57
2023-01-09T01:04:30.083Z,4.97
2023-01-09T01:06:50.058Z,6.70
2023-01-09T01:08:51.901Z,5.10
2023-01-09T01:10:53.740Z,4.47
2023-01-09T01:12:55.623Z,5.67
2023-01-09T01:14:57.835Z,5.53
2023-01-09T01:16:59.785Z,4.33
2023-01-09T01:19:01.781Z,4.83
2023-01-09T01:21:12.287Z,5.00
2023-01-09T01:23:14.492Z,4.75
2023-01-09T01:25:17.404Z,5.33
2023-01-09T01:27:19.190Z,4.77
2023-01-09T01:29:20.967Z,4.88
2023-01-09T01:31:22.775Z,5.30
2023-01-09T01:33:24.593Z,5.43
2023-01-09T01:35:26.925Z,6.47
2023-01-09T01:37:28.888Z,4.85
2023-01-09T01:39:30.847Z,5.93
2023-01-09T01:41:32.639Z,5.30
2023-01-09T01:44:03.192Z,5.53
2023-01-09T01:46:05.235Z,5.10
2023-01-09T01:48:14.378Z,7.33
2023-01-09T01:50:51.951Z,4.85
2023-01-09T01:53:16.580Z,5.53
2023-01-09T01:55:19.620Z,3.77
2023-01-09T01:57:21.658Z,4.90
2023-01-09T01:59:38.747Z,3.27
2023-01-09T02:01:44.317Z,3.92
2023-01-09T02:03:46.416Z,6.68
2023-01-09T02:05:49.323Z,4.13
2023-01-09T02:07:51.342Z,5.80
2023-01-09T02:09:55.121Z,3.70
2023-01-09T02:11:58.857Z,4.07
2023-01-09T02:14:02.420Z,3.55
2023-01-09T02:16:13.378Z,4.10
2023-01-09T02:18:31.629Z,3.92
2023-01-09T02:20:40.748Z,4.87
2023-01-09T02:23:00.755Z,5.55
2023-01-09T02:25:25.327Z,2.90
2023-01-09T02:28:13.776Z,3.13
2023-01-09T02:30:31.312Z,4.00
2023-01-09T02:32:51.003Z,3.17
2023-01-09T02:35:18.490Z,2.58
2023-01-09T02:37:38.780Z,3.60
2023-01-09T02:39:51.565Z,2.47
2023-01-09T02:42:20.387Z,4.43
2023-01-09T02:44:28.486Z,2.35
2023-01-09T02:46:30.354Z,3.67
2023-01-09T02:48:32.518Z,3.75
2023-01-09T02:51:19.047Z,2.63
2023-01-09T02:54:04.481Z,3.92
2023-01-09T02:56:25.163Z,4.63
2023-01-09T02:58:50.498Z,5.50
2023-01-09T03:01:27.701Z,3.53
2023-01-09T03:03:44.949Z,2.33
2023-01-09T03:05:57.305Z,3.47
2023-01-09T03:08:04.104Z,2.95
2023-01-09T03:10:41.889Z,3.40
2023-01-09T03:12:45.516Z,3.63
2023-01-09T03:14:53.464Z,3.55
2023-01-09T03:17:02.609Z,3.23
2023-01-09T03:19:13.818Z,3.03
2023-01-09T03:21:17.294Z,2.30
2023-01-09T03:23:19.281Z,2.80
2023-01-09T03:25:21.776Z,3.10
2023-01-09T03:27:23.851Z,2.40
2023-01-09T03:29:25.782Z,2.60
2023-01-09T03:31:27.693Z,4.25
2023-01-09T03:33:29.839Z,3.30
2023-01-09T03:35:31.708Z,3.38
2023-01-09T03:37:35.876Z,3.80
2023-01-09T03:39:37.811Z,3.10
2023-01-09T03:41:39.800Z,2.50
2023-01-09T03:43:41.729Z,2.83
2023-01-09T03:45:43.953Z,3.28
2023-01-09T03:47:45.855Z,3.72
2023-01-09T03:49:47.680Z,2.92
2023-01-09T03:51:49.700Z,4.85
2023-01-09T03:53:51.561Z,2.80
2023-01-09T03:55:55.081Z,3.08
2023-01-09T03:57:56.929Z,2.50
2023-01-09T03:59:59.053Z,4.78
2023-01-09T04:02:03.664Z,2.78
2023-01-09T04:04:05.991Z,2.75
2023-01-09T04:06:08.151Z,8.53
2023-01-09T04:08:10.047Z,3.53
2023-01-09T04:10:12.279Z,4.80
2023-01-09T04:12:14.465Z,4.43
2023-01-09T04:14:16.819Z,2.95
2023-01-09T04:16:19.168Z,2.90
2023-01-09T04:18:21.133Z,3.50
2023-01-09T04:20:23.025Z,3.72
2023-01-09T04:22:25.601Z,5.67
2023-01-09T04:24:28.661Z,2.95
2023-01-09T04:26:30.542Z,4.63
2023-01-09T04:28:32.665Z,3.42
2023-01-09T04:30:34.537Z,3.03
2023-01-09T04:32:36.458Z,3.20
2023-01-09T04:34:38.270Z,3.13
2023-01-09T04:36:40.306Z,2.97
2023-01-09T04:38:42.115Z,3.28
2023-01-09T04:40:44.081Z,5.03
2023-01-09T04:42:46.217Z,6.25
2023-01-09T04:44:48.166Z,4.70
2023-01-09T04:46:50.209Z,5.25
2023-01-09T04:48:52.131Z,3.90
2023-01-09T04:50:53.970Z,4.30
2023-01-09T04:52:56.852Z,5.03
2023-01-09T04:54:58.825Z,5.82
2023-01-09T04:57:00.687Z,7.23
2023-01-09T04:59:04.262Z,9.07
2023-01-09T05:01:06.348Z,8.82
2023-01-09T05:03:08.333Z,9.13
2023-01-09T05:05:11.963Z,6.32
2023-01-09T05:07:13.992Z,6.53
2023-01-09T05:09:15.986Z,8.20
2023-01-09T05:11:17.901Z,10.70
2023-01-09T05:13:20.118Z,9.25
2023-01-09T05:15:22.212Z,11.73
2023-01-09T05:17:24.362Z,10.75
2023-01-09T05:19:26.364Z,11.98
2023-01-09T05:21:28.423Z,12.73
2023-01-09T05:23:30.388Z,8.82
2023-01-09T05:25:32.209Z,11.40
2023-01-09T05:27:34.203Z,10.82
2023-01-09T05:29:36.089Z,8.40
2023-01-09T05:31:38.151Z,9.05
2023-01-09T05:33:40.138Z,8.30
2023-01-09T05:35:42.060Z,6.18
2023-01-09T05:37:43.982Z,6.53
2023-01-09T05:39:45.919Z,5.20
2023-01-09T05:41:47.814Z,6.73
2023-01-09T05:43:49.979Z,7.72
2023-01-09T05:45:51.783Z,5.55
2023-01-09T05:47:53.754Z,4.05
2023-01-09T05:49:56.578Z,6.45
2023-01-09T05:51:58.313Z,5.00
2023-01-09T05:54:00.369Z,6.37
2023-01-09T05:56:02.434Z,5.73
2023-01-09T05:58:04.248Z,8.50
2023-01-09T06:00:07.083Z,8.23
2023-01-09T06:02:09.228Z,8.57
2023-01-09T06:04:11.119Z,12.00
2023-01-09T06:06:13.570Z,15.90
2023-01-09T06:08:15.424Z,15.07
2023-01-09T06:10:17.574Z,16.03
2023-01-09T06:12:19.571Z,15.37
2023-01-09T06:14:21.537Z,15.03
2023-01-09T06:16:23.427Z,16.23
2023-01-09T06:18:25.385Z,13.52
2023-01-09T06:20:27.324Z,11.40
2023-01-09T06:22:29.109Z,12.00
2023-01-09T06:24:30.943Z,11.40
2023-01-09T06:26:32.833Z,12.93
2023-01-09T06:28:34.741Z,8.93
2023-01-09T06:30:36.632Z,6.73
2023-01-09T06:32:38.380Z,7.40
2023-01-09T06:34:40.539Z,6.30
2023-01-09T06:36:42.753Z,7.63
2023-01-09T06:38:44.697Z,6.17
2023-01-09T06:40:47.504Z,4.23
2023-01-09T06:42:50.348Z,3.50
2023-01-09T06:44:52.447Z,4.93
2023-01-09T06:46:54.366Z,4.03
2023-01-09T06:48:56.225Z,3.87
2023-01-09T06:50:58.093Z,4.90
2023-01-09T06:53:00.117Z,3.63
2023-01-09T06:55:02.165Z,2.70
2023-01-09T06:57:04.057Z,3.00
2023-01-09T06:59:05.819Z,3.77
2023-01-09T07:01:07.834Z,3.50
2023-01-09T07:03:10.447Z,4.33
2023-01-09T07:05:12.381Z,3.03
2023-01-09T07:07:14.336Z,3.63
2023-01-09T07:09:16.320Z,3.33
2023-01-09T07:11:18.203Z,2.50
2023-01-09T07:13:20.226Z,4.32
2023-01-09T07:15:22.338Z,3.63
2023-01-09T07:17:24.157Z,4.37
2023-01-09T07:19:25.937Z,3.73
2023-01-09T07:21:27.775Z,2.77
2023-01-09T07:23:29.625Z,4.18
2023-01-09T07:25:31.476Z,3.58
2023-01-09T07:27:33.386Z,3.53
2023-01-09T07:29:35.166Z,4.60
2023-01-09T07:31:37.079Z,2.63
2023-01-09T07:33:40.505Z,2.35
2023-01-09T07:35:42.839Z,3.08
2023-01-09T07:37:46.312Z,3.20
2023-01-09T07:39:48.348Z,2.40
2023-01-09T07:41:50.245Z,2.78
2023-01-09T07:43:52.169Z,2.97
2023-01-09T07:45:54.072Z,3.67
2023-01-09T07:47:55.919Z,9.77
2023-01-09T07:49:57.820Z,7.60
2023-01-09T07:51:59.866Z,3.67
2023-01-09T07:54:01.807Z,4.60
2023-01-09T07:56:03.758Z,3.00
2023-01-09T07:58:05.784Z,3.13
2023-01-09T08:00:11.154Z,3.25
2023-01-09T08:02:18.173Z,3.15
2023-01-09T08:04:20.085Z,3.25
2023-01-09T08:06:22.070Z,3.00
2023-01-09T08:08:24.019Z,3.63
2023-01-09T08:10:25.810Z,3.57
2023-01-09T08:12:27.652Z,3.90
2023-01-09T08:14:29.682Z,5.32
2023-01-09T08:16:31.685Z,4.40
2023-01-09T08:18:33.802Z,4.10
2023-01-09T08:20:35.652Z,4.40
2023-01-09T08:22:37.859Z,4.27
2023-01-09T08:24:39.665Z,3.40
2023-01-09T08:26:41.875Z,5.95
2023-01-09T08:28:43.634Z,4.93
2023-01-09T08:30:47.410Z,6.45
2023-01-09T08:32:54.505Z,9.98
2023-01-09T08:34:56.583Z,13.65
2023-01-09T08:36:59.495Z,11.90
2023-01-09T08:39:01.653Z,7.43
2023-01-09T08:41:26.865Z,6.88
2023-01-09T08:43:47.460Z,10.90
2023-01-09T08:46:15.780Z,8.13
2023-01-09T08:48:17.703Z,10.77
2023-01-09T08:50:19.735Z,10.82
2023-01-09T08:52:21.787Z,8.70
2023-01-09T08:54:23.791Z,5.72
2023-01-09T08:56:25.596Z,3.80
2023-01-09T08:58:27.473Z,3.35
2023-01-09T09:00:29.329Z,3.35
2023-01-09T09:02:31.616Z,6.55
2023-01-09T09:04:33.414Z,6.85
2023-01-09T09:06:35.673Z,7.47
2023-01-09T09:08:37.399Z,5.65
2023-01-09T09:10:39.468Z,4.47
2023-01-09T09:12:41.593Z,2.88
2023-01-09T09:15:02.104Z,4.00
2023-01-09T09:17:03.841Z,5.32
2023-01-09T09:19:05.725Z,7.38
2023-01-09T09:21:09.014Z,4.95
2023-01-09T09:23:12.207Z,5.10
2023-01-09T09:25:15.292Z,4.03
2023-01-09T09:27:17.198Z,6.85
2023-01-09T09:29:19.010Z,3.83
2023-01-09T09:31:20.875Z,5.88
2023-01-09T09:33:22.891Z,6.80
2023-01-09T09:35:25.020Z,10.57
2023-01-09T09:37:27.022Z,9.63
2023-01-09T09:39:28.977Z,18.38
2023-01-09T09:41:52.276Z,16.65
2023-01-09T09:44:28.627Z,18.13
2023-01-09T09:46:39.340Z,21.17
2023-01-09T09:49:01.394Z,65.13
2023-01-09T09:51:45.405Z,43.15
2023-01-09T09:54:06.369Z,27.17
2023-01-09T09:56:12.722Z,12.32
2023-01-09T09:58:28.123Z,7.38
2023-01-09T10:00:30.449Z,4.00
2023-01-09T10:03:06.773Z,4.85
2023-01-09T10:05:23.510Z,4.00
2023-01-09T10:07:34.833Z,3.58
2023-01-09T10:09:49.945Z,4.18
2023-01-09T10:12:04.301Z,3.65
2023-01-09T10:14:10.639Z,3.03
2023-01-09T10:16:44.397Z,4.57
2023-01-09T10:19:04.741Z,4.45
2023-01-09T10:21:16.627Z,3.88
2023-01-09T10:23:49.251Z,4.70
2023-01-09T10:26:05.297Z,3.85
2023-01-09T10:28:32.320Z,4.30
2023-01-09T10:30:49.512Z,3.55
2023-01-09T10:32:57.029Z,4.32
2023-01-09T10:35:33.006Z,5.63
2023-01-09T10:37:42.681Z,3.67
2023-01-09T10:40:08.934Z,4.25
2023-01-09T10:42:33.545Z,2.95
2023-01-09T10:44:42.597Z,4.00
2023-01-09T10:46:53.133Z,4.18
2023-01-09T10:49:11.536Z,3.38
2023-01-09T10:51:19.964Z,4.03
2023-01-09T10:53:26.351Z,4.40
2023-01-09T10:55:44.112Z,3.97
2023-01-09T10:57:50.572Z,4.00
2023-01-09T10:59:52.675Z,3.78
2023-01-09T11:01:54.964Z,5.80
2023-01-09T11:03:59.355Z,3.70
2023-01-09T11:06:03.321Z,5.00
2023-01-09T11:08:21.676Z,6.47
2023-01-09T11:10:23.842Z,6.00
2023-01-09T11:12:33.874Z,5.72
2023-01-09T11:14:35.738Z,5.25
2023-01-09T11:16:37.555Z,6.97
2023-01-09T11:18:48.317Z,6.22
2023-01-09T11:20:50.666Z,3.42
2023-01-09T11:22:57.623Z,3.70
2023-01-09T11:25:03.376Z,4.57
2023-01-09T11:27:13.959Z,3.60
2023-01-09T11:29:20.932Z,4.78
2023-01-09T11:31:24.671Z,4.50
2023-01-09T11:33:41.329Z,6.20
2023-01-09T11:36:11.591Z,4.30
2023-01-09T11:38:16.977Z,2.90
2023-01-09T11:40:21.769Z,2.53
2023-01-09T11:42:45.069Z,3.00
2023-01-09T11:44:47.048Z,3.20
2023-01-09T11:46:49.019Z,2.97
2023-01-09T11:48:57.080Z,3.33
2023-01-09T11:51:01.904Z,6.25
2023-01-09T11:53:43.176Z,3.90
2023-01-09T11:55:53.056Z,4.32
2023-01-09T11:57:54.874Z,3.10
2023-01-09T12:00:02.049Z,4.13
2023-01-09T12:02:45.987Z,4.38
2023-01-09T12:05:03.245Z,3.97
2023-01-09T12:07:24.043Z,5.90
2023-01-09T12:09:47.938Z,4.45
2023-01-09T12:12:22.191Z,3.78
2023-01-09T12:14:35.833Z,3.55
2023-01-09T12:16:40.474Z,3.80
2023-01-09T12:19:20.789Z,3.83
2023-01-09T12:21:36.199Z,3.38
2023-01-09T12:24:15.093Z,4.95
2023-01-09T12:26:50.651Z,5.15
2023-01-09T12:28:57.634Z,3.30
2023-01-09T12:31:23.909Z,4.00
2023-01-09T12:33:55.069Z,4.28
2023-01-09T12:36:15.517Z,4.78
2023-01-09T12:38:42.121Z,4.00
2023-01-09T12:41:17.510Z,4.72
2023-01-09T12:43:34.573Z,11.40
2023-01-09T12:46:13.588Z,8.00
2023-01-09T12:48:42.242Z,6.15
2023-01-09T12:50:59.591Z,8.60
2023-01-09T12:53:30.379Z,7.78
2023-01-09T12:55:40.116Z,8.30
2023-01-09T12:57:49.203Z,7.95
2023-01-09T12:59:53.711Z,8.68
2023-01-09T13:02:03.981Z,9.40
2023-01-09T13:04:21.919Z,9.80
2023-01-09T13:06:26.491Z,12.25
2023-01-09T13:08:42.504Z,12.52
2023-01-09T13:11:19.013Z,13.02
2023-01-09T13:13:34.573Z,11.07
2023-01-09T13:15:41.876Z,12.00
2023-01-09T13:17:49.329Z,8.95
2023-01-09T13:19:53.332Z,7.95
2023-01-09T13:21:57.657Z,9.05
2023-01-09T13:24:24.964Z,7.82
2023-01-09T13:26:47.343Z,7.10
2023-01-09T13:28:57.153Z,10.50
2023-01-09T13:31:13.902Z,9.73
2023-01-09T13:33:23.071Z,6.32
2023-01-09T13:35:25.186Z,5.65
2023-01-09T13:37:35.399Z,6.70
2023-01-09T13:39:37.508Z,6.95
2023-01-09T13:42:06.839Z,5.45
2023-01-09T13:44:28.912Z,5.43
2023-01-09T13:46:43.738Z,6.80
2023-01-09T13:48:45.715Z,7.05
2023-01-09T13:50:51.017Z,5.78
2023-01-09T13:52:53.455Z,7.45
2023-01-09T13:55:00.993Z,6.60
2023-01-09T13:57:15.688Z,6.03
2023-01-09T13:59:28.298Z,5.28
2023-01-09T14:01:35.626Z,6.50
2023-01-09T14:03:38.979Z,6.53
2023-01-09T14:05:40.851Z,5.20
2023-01-09T14:07:50.675Z,6.10
2023-01-09T14:09:58.361Z,4.80
2023-01-09T14:12:06.021Z,4.13
2023-01-09T14:14:23.075Z,5.45
2023-01-09T14:16:27.407Z,5.78
2023-01-09T14:18:34.130Z,5.55
2023-01-09T14:20:39.672Z,6.35
2023-01-09T14:22:50.404Z,5.82
2023-01-09T14:25:07.644Z,7.40
2023-01-09T14:27:48.013Z,5.00
2023-01-09T14:29:49.992Z,6.40
2023-01-09T14:31:51.869Z,5.45
2023-01-09T14:34:31.185Z,6.68
2023-01-09T14:36:35.982Z,7.65
2023-01-09T14:38:48.404Z,6.50
2023-01-09T14:41:11.116Z,9.35
2023-01-09T14:43:21.507Z,8.98
2023-01-09T14:45:27.824Z,6.35
2023-01-09T14:47:39.960Z,6.25
2023-01-09T14:49:50.799Z,8.80
2023-01-09T14:51:54.195Z,8.65
2023-01-09T14:53:57.495Z,5.60
2023-01-09T14:56:02.302Z,6.00
2023-01-09T14:58:20.995Z,6.38
2023-01-09T15:00:23.752Z,8.13
2023-01-09T15:02:29.426Z,8.52
2023-01-09T15:04:36.420Z,8.18
2023-01-09T15:06:43.009Z,8.57
2023-01-09T15:08:47.591Z,7.70
2023-01-09T15:10:52.897Z,8.00
2023-01-09T15:12:57.111Z,7.40
2023-01-09T15:15:02.876Z,16.77
2023-01-09T15:17:05.209Z,27.65
2023-01-09T15:19:08.985Z,21.90
2023-01-09T15:21:19.883Z,21.90
2023-01-09T15:23:30.901Z,17.08
2023-01-09T15:25:39.666Z,16.67
2023-01-09T15:27:49.419Z,14.02
2023-01-09T15:29:52.283Z,10.75
2023-01-09T15:32:22.305Z,11.15
2023-01-09T15:34:25.994Z,15.02
2023-01-09T15:36:31.191Z,14.55
2023-01-09T15:38:36.005Z,12.48
2023-01-09T15:40:38.025Z,12.65
2023-01-09T15:42:57.355Z,14.05
2023-01-09T15:44:59.888Z,12.95
2023-01-09T15:47:04.679Z,17.17
2023-01-09T15:49:11.481Z,16.23
2023-01-09T15:51:19.884Z,18.75
2023-01-09T15:53:24.382Z,23.90
2023-01-09T15:55:37.548Z,25.23
2023-01-09T15:57:51.631Z,22.90
2023-01-09T15:59:55.131Z,22.08
2023-01-09T16:02:22.233Z,25.70
2023-01-09T16:04:25.823Z,29.02
2023-01-09T16:06:29.824Z,30.83
2023-01-09T16:08:35.910Z,29.38
2023-01-09T16:10:38.049Z,31.67
2023-01-09T16:12:40.707Z,36.67
2023-01-09T16:14:48.673Z,32.58
2023-01-09T16:16:52.725Z,34.63
2023-01-09T16:21:36.505Z,26.77
2023-01-09T16:23:38.612Z,30.45
2023-01-09T16:25:40.634Z,29.65
2023-01-09T16:27:42.693Z,28.85
2023-01-09T16:29:57.442Z,234.23
2023-01-09T16:32:06.245Z,210.95
2023-01-09T16:34:13.188Z,200.48
2023-01-09T16:36:16.994Z,158.40
2023-01-09T16:38:19.288Z,110.03
2023-01-09T16:40:26.174Z,111.22
2023-01-09T16:42:46.563Z,94.85
2023-01-09T16:44:48.603Z,81.38
2023-01-09T16:46:51.397Z,81.85
2023-01-09T16:48:56.244Z,86.65
2023-01-09T16:50:58.072Z,95.72
2023-01-09T16:53:02.323Z,87.15
2023-01-09T16:55:05.373Z,85.88
2023-01-09T16:57:13.713Z,78.30
2023-01-09T16:59:20.705Z,81.15
2023-01-09T17:01:23.434Z,65.45
2023-01-09T17:03:25.912Z,54.50
2023-01-09T17:05:27.841Z,42.70
2023-01-09T17:07:31.262Z,224.10
2023-01-09T17:09:33.235Z,262.55
2023-01-09T17:11:35.812Z,240.48
2023-01-09T17:13:37.804Z,150.43
2023-01-09T17:15:39.697Z,127.45
2023-01-09T17:17:41.805Z,81.10
2023-01-09T17:19:44.027Z,57.67
2023-01-09T17:21:46.446Z,57.50
2023-01-09T17:24:09.079Z,68.07
2023-01-09T17:26:36.272Z,53.05
2023-01-09T17:28:39.803Z,51.90
2023-01-09T17:30:42.052Z,17.25
2023-01-09T17:32:44.120Z,9.07
2023-01-09T17:34:46.565Z,8.63
2023-01-09T17:36:48.634Z,8.45
2023-01-09T17:38:54.966Z,9.50
2023-01-09T17:40:56.971Z,11.43
2023-01-09T17:42:58.926Z,11.02
2023-01-09T17:45:01.037Z,11.73
2023-01-09T17:47:02.920Z,8.60
2023-01-09T17:49:06.664Z,21.25
2023-01-09T17:51:09.676Z,17.40
2023-01-09T17:53:12.417Z,16.75
2023-01-09T17:55:14.984Z,12.13
2023-01-09T17:57:17.697Z,10.25
2023-01-09T17:59:19.809Z,9.48
2023-01-09T18:01:22.131Z,9.02
2023-01-09T18:03:26.216Z,6.53
2023-01-09T18:05:28.786Z,6.20
2023-01-09T18:07:30.598Z,9.43
2023-01-09T18:09:32.925Z,8.40
2023-01-09T18:11:34.772Z,11.20
2023-01-09T18:13:36.811Z,12.75
2023-01-09T18:15:42.288Z,8.73
2023-01-09T18:17:44.623Z,8.60
2023-01-09T18:19:46.826Z,8.00
2023-01-09T18:21:48.724Z,7.18
2023-01-09T18:23:50.780Z,5.82
2023-01-09T18:25:52.650Z,13.70
2023-01-09T18:27:54.691Z,12.45
2023-01-09T18:29:57.345Z,14.80
2023-01-09T18:31:59.465Z,33.45
2023-01-09T18:34:05.690Z,28.75
2023-01-09T18:36:09.739Z,28.15
2023-01-09T18:38:12.489Z,33.42
2023-01-09T18:40:14.615Z,38.92
2023-01-09T18:42:16.832Z,34.85
2023-01-09T18:44:22.060Z,39.38
2023-01-09T18:46:24.842Z,33.45
2023-01-09T18:48:26.989Z,30.77
2023-01-09T18:50:29.108Z,23.38
2023-01-09T18:52:30.936Z,24.95
2023-01-09T18:54:32.887Z,29.25
2023-01-09T18:56:35.825Z,29.33
2023-01-09T18:58:37.767Z,28.10
2023-01-09T19:00:41.380Z,26.55
2023-01-09T19:02:43.257Z,17.15
2023-01-09T19:04:45.109Z,27.05
2023-01-09T19:06:47.117Z,38.38
2023-01-09T19:08:49.009Z,41.28
2023-01-09T19:10:52.461Z,35.28
2023-01-09T19:12:54.322Z,22.10
2023-01-09T19:14:56.289Z,16.92
2023-01-09T19:16:59.321Z,17.17
2023-01-09T19:19:02.883Z,86.60
2023-01-09T19:21:13.870Z,318.55
2023-01-09T19:23:17.014Z,222.35
2023-01-09T19:25:18.857Z,158.30
2023-01-09T19:27:20.641Z,154.25
2023-01-09T19:29:22.523Z,156.50
2023-01-09T19:31:26.177Z,205.23
2023-01-09T19:33:28.163Z,187.90
2023-01-09T19:35:30.097Z,405.35
2023-01-09T19:37:32.525Z,236.13
2023-01-09T19:39:34.449Z,220.93
2023-01-09T19:41:36.285Z,227.48
2023-01-09T19:43:40.454Z,136.80
2023-01-09T19:45:42.419Z,83.50
2023-01-09T19:47:45.447Z,46.08
2023-01-09T19:49:47.514Z,33.67
2023-01-09T19:51:50.454Z,25.67
2023-01-09T19:53:54.091Z,18.95
2023-01-09T19:56:07.216Z,19.08
2023-01-09T19:58:09.175Z,16.20
2023-01-09T20:00:12.551Z,12.88
2023-01-09T20:02:15.462Z,11.90
2023-01-09T20:04:18.784Z,9.50
2023-01-09T20:06:24.410Z,12.00
2023-01-09T20:08:26.266Z,13.63
2023-01-09T20:10:28.103Z,12.80
2023-01-09T20:12:29.886Z,11.13
2023-01-09T20:14:31.846Z,15.52
2023-01-09T20:16:33.619Z,25.63
2023-01-09T20:18:36.406Z,33.70
2023-01-09T20:20:38.182Z,24.60
2023-01-09T20:22:40.028Z,18.00
2023-01-09T20:24:42.182Z,14.90
2023-01-09T20:26:46.284Z,14.05
2023-01-09T20:28:48.263Z,15.60
2023-01-09T20:30:51.882Z,14.68
2023-01-09T20:32:54.033Z,13.32
2023-01-09T20:34:56.199Z,13.00
2023-01-09T20:36:58.184Z,14.40
2023-01-09T20:39:02.313Z,13.13
2023-01-09T20:41:12.662Z,35.47
2023-01-09T20:43:14.634Z,59.20
2023-01-09T20:45:16.550Z,56.63
2023-01-09T20:47:18.424Z,55.70
2023-01-09T20:49:21.040Z,42.95
2023-01-09T20:51:23.139Z,40.72
2023-01-09T20:53:25.019Z,45.92
2023-01-09T20:55:26.902Z,47.67
2023-01-09T20:57:28.801Z,44.55
2023-01-09T20:59:30.707Z,47.70
2023-01-09T21:01:32.979Z,46.17
2023-01-09T21:03:34.922Z,40.40
2023-01-09T21:05:40.537Z,34.60
2023-01-09T21:07:42.325Z,23.42
2023-01-09T21:09:44.247Z,27.95
2023-01-09T21:11:46.132Z,29.00
2023-01-09T21:13:48.814Z,33.13
2023-01-09T21:15:50.718Z,31.77
2023-01-09T21:17:52.730Z,28.88
2023-01-09T21:19:54.980Z,29.33
2023-01-09T21:21:56.761Z,30.98
2023-01-09T21:24:00.960Z,49.67
2023-01-09T21:26:09.761Z,59.83
2023-01-09T21:28:15.025Z,57.25
2023-01-09T21:30:17.181Z,46.80
2023-01-09T21:32:19.116Z,51.78
2023-01-09T21:34:20.984Z,39.30
2023-01-09T21:36:23.271Z,41.70
2023-01-09T21:38:27.825Z,39.83
2023-01-09T21:40:29.712Z,32.55
2023-01-09T21:42:50.322Z,32.47
2023-01-09T21:45:10.430Z,30.02
2023-01-09T21:47:12.769Z,28.30
2023-01-09T21:49:14.621Z,94.68
2023-01-09T21:51:16.465Z,69.60
2023-01-09T21:53:18.520Z,65.40
2023-01-09T21:55:20.486Z,52.08
2023-01-09T21:57:22.345Z,65.10
2023-01-09T21:59:24.228Z,47.85
2023-01-09T22:01:26.119Z,28.08
2023-01-09T22:03:28.275Z,23.52
2023-01-09T22:05:29.997Z,21.80
2023-01-09T22:07:31.783Z,18.38
2023-01-09T22:09:33.662Z,14.15
2023-01-09T22:11:35.970Z,13.15
2023-01-09T22:13:38.155Z,14.50
2023-01-09T22:15:41.317Z,19.30
2023-01-09T22:17:43.158Z,14.13
2023-01-09T22:19:45.038Z,14.48
2023-01-09T22:21:47.186Z,13.63
2023-01-09T22:23:49.296Z,13.40
2023-01-09T22:25:51.193Z,14.75
2023-01-09T22:27:53.070Z,12.43
2023-01-09T22:29:54.791Z,17.13
2023-01-09T22:31:56.565Z,18.45
2023-01-09T22:34:05.131Z,16.70
2023-01-09T22:36:09.085Z,17.90
2023-01-09T22:38:11.924Z,15.10
2023-01-09T22:40:14.120Z,15.38
2023-01-09T22:42:16.781Z,13.90
2023-01-09T22:44:19.464Z,14.60
2023-01-09T22:46:21.452Z,14.18
2023-01-09T22:48:23.449Z,11.87
2023-01-09T22:50:25.715Z,11.85
2023-01-09T22:52:28.702Z,13.80
2023-01-09T22:54:30.653Z,13.27
2023-01-09T22:56:32.549Z,13.05
2023-01-09T22:58:34.627Z,14.05
2023-01-09T23:00:36.480Z,16.00
2023-01-09T23:02:38.660Z,12.70
2023-01-09T23:04:40.460Z,15.80
2023-01-09T23:06:43.349Z,16.88
2023-01-09T23:08:46.220Z,18.83
2023-01-09T23:10:48.049Z,13.80
2023-01-09T23:12:50.435Z,13.50
2023-01-09T23:14:52.359Z,14.80
2023-01-09T23:16:55.185Z,13.30
2023-01-09T23:18:57.250Z,13.27
2023-01-09T23:21:02.084Z,15.25
2023-01-09T23:23:04.004Z,14.45
2023-01-09T23:25:06.231Z,11.45
2023-01-09T23:27:08.247Z,12.13
2023-01-09T23:29:11.770Z,13.50
2023-01-09T23:31:13.808Z,14.60
2023-01-09T23:33:16.783Z,13.93
2023-01-09T23:35:19.096Z,14.85
2023-01-09T23:37:20.905Z,14.85
2023-01-09T23:39:23.087Z,13.40
2023-01-09T23:41:44.805Z,14.57
2023-01-09T23:43:46.749Z,19.77
2023-01-09T23:45:50.651Z,17.90
2023-01-09T23:47:52.706Z,17.05
2023-01-09T23:49:54.508Z,18.15
2023-01-09T23:51:56.629Z,15.77
2023-01-09T23:53:58.508Z,18.83
2023-01-09T23:56:01.260Z,17.15
2023-01-09T23:58:03.424Z,18.58
